Time;durP1;ratioP1;P1;durP2;ratioP2;P2;SDS_P1;SDS_P2;PMS_P1;PMS_P2;Temp;Humidity;BMP_temperature;BMP_pressure;BME280_temperature;BME280_humidity;BME280_pressure;Samples;Min_cycle;Max_cycle;Signal;HPM_P1;HPM_P2
2022/06/23 00:01:47;;;;;;;7.78;4.60;;;16.20;99.90;;;;;;5090952;28;20352;-76
2022/06/23 00:04:16;;;;;;;6.05;4.13;;;16.10;99.90;;;;;;5088452;28;20295;-72
2022/06/23 00:06:48;;;;;;;6.65;4.47;;;16.00;99.90;;;;;;5088436;28;20191;-72
2022/06/23 00:12:30;;;;;;;4.32;3.92;;;16.00;99.90;;;;;;5083635;28;20187;-77
2022/06/23 00:15:32;;;;;;;4.95;4.10;;;15.90;99.90;;;;;;5088663;28;20199;-74
2022/06/23 00:18:01;;;;;;;4.78;4.35;;;15.90;99.90;;;;;;5082210;28;20230;-73
2022/06/23 00:20:33;;;;;;;6.00;4.28;;;15.80;99.90;;;;;;5092040;28;20214;-74
2022/06/23 00:23:14;;;;;;;6.55;4.70;;;15.80;99.90;;;;;;5092653;28;20241;-74
2022/06/23 00:25:46;;;;;;;6.03;3.92;;;15.80;99.90;;;;;;5089838;28;20438;-72
2022/06/23 00:28:22;;;;;;;5.25;4.75;;;15.80;99.90;;;;;;5087925;28;20187;-73
2022/06/23 00:31:02;;;;;;;5.97;4.35;;;15.80;99.90;;;;;;5077657;28;20321;-74
2022/06/23 00:33:31;;;;;;;5.63;4.43;;;15.80;99.90;;;;;;5086820;28;20198;-77
2022/06/23 00:35:59;;;;;;;4.55;4.15;;;15.80;99.90;;;;;;5086486;28;20183;-74
2022/06/23 00:38:39;;;;;;;5.60;5.10;;;15.80;99.90;;;;;;5087716;28;20187;-71
2022/06/23 00:41:17;;;;;;;5.20;4.75;;;15.80;99.90;;;;;;5090305;28;20360;-71
2022/06/23 00:43:48;;;;;;;4.30;3.78;;;15.80;99.90;;;;;;5084257;28;20210;-73
2022/06/23 00:46:22;;;;;;;6.05;4.53;;;15.80;99.90;;;;;;5083096;28;20211;-71
2022/06/23 00:48:55;;;;;;;7.45;5.00;;;15.80;99.90;;;;;;5086432;28;20585;-74
2022/06/23 00:51:27;;;;;;;5.07;4.00;;;15.80;99.90;;;;;;5080017;28;20192;-72
2022/06/23 00:53:59;;;;;;;5.43;3.65;;;15.70;99.90;;;;;;5085240;28;20206;-72
2022/06/23 00:56:39;;;;;;;5.20;4.70;;;15.70;99.90;;;;;;5079382;28;20198;-74
2022/06/23 00:59:14;;;;;;;5.75;5.18;;;15.70;99.90;;;;;;5081301;28;20312;-75
2022/06/23 01:01:46;;;;;;;4.70;4.30;;;15.60;99.90;;;;;;5085643;28;20274;-73
2022/06/23 01:04:23;;;;;;;7.15;5.25;;;15.70;99.90;;;;;;5083657;28;20190;-73
2022/06/23 01:06:57;;;;;;;6.40;5.80;;;15.60;99.90;;;;;;5084312;28;20274;-74
2022/06/23 01:09:31;;;;;;;7.72;5.15;;;15.60;99.90;;;;;;5083854;28;20238;-72
2022/06/23 01:12:03;;;;;;;7.88;5.43;;;15.60;99.90;;;;;;5087436;28;20209;-73
2022/06/23 01:14:38;;;;;;;7.30;6.22;;;15.50;99.90;;;;;;5086114;28;20196;-71
2022/06/23 01:17:13;;;;;;;6.35;5.75;;;15.40;99.90;;;;;;5094705;28;20191;-70
2022/06/23 01:20:09;;;;;;;6.18;5.13;;;15.40;99.90;;;;;;5092356;28;20265;-70
2022/06/23 01:23:05;;;;;;;6.15;5.30;;;15.40;99.90;;;;;;5079498;28;20188;-73
2022/06/23 01:25:45;;;;;;;6.07;5.50;;;15.30;99.90;;;;;;5081917;28;20209;-72
2022/06/23 01:28:17;;;;;;;6.47;5.88;;;15.30;99.90;;;;;;5089561;28;20213;-73
2022/06/23 01:30:49;;;;;;;5.88;5.35;;;15.30;99.90;;;;;;5079815;28;20419;-72
2022/06/23 01:33:22;;;;;;;6.15;5.60;;;15.20;99.90;;;;;;5088577;28;20340;-74
2022/06/23 01:35:58;;;;;;;8.18;6.32;;;15.20;99.90;;;;;;5082207;28;20387;-73
2022/06/23 01:38:36;;;;;;;6.32;5.40;;;15.20;99.90;;;;;;5075536;28;20197;-71
2022/06/23 01:41:12;;;;;;;7.38;6.15;;;15.20;99.90;;;;;;5081707;28;20284;-71
2022/06/23 01:43:44;;;;;;;6.35;5.72;;;15.20;99.90;;;;;;5085905;28;20301;-72
2022/06/23 01:46:16;;;;;;;6.93;5.95;;;15.20;99.90;;;;;;5085445;28;20187;-75
2022/06/23 01:48:57;;;;;;;9.45;6.30;;;15.10;99.90;;;;;;5086420;28;20296;-74
2022/06/23 01:51:27;;;;;;;6.18;5.35;;;15.20;99.90;;;;;;5079545;28;20204;-71
2022/06/23 01:53:56;;;;;;;7.90;6.15;;;15.30;99.90;;;;;;5086119;28;20254;-73
2022/06/23 01:56:40;;;;;;;7.30;6.00;;;15.10;99.90;;;;;;5083025;28;20188;-74
2022/06/23 01:59:22;;;;;;;7.00;6.28;;;15.10;99.90;;;;;;5086940;28;20186;-72
2022/06/23 02:01:54;;;;;;;6.53;5.82;;;15.00;99.90;;;;;;5082964;28;20237;-74
2022/06/23 02:04:33;;;;;;;7.60;6.75;;;15.00;99.90;;;;;;5084061;28;20187;-72
2022/06/23 02:07:09;;;;;;;6.65;5.80;;;15.00;99.90;;;;;;5085862;28;20206;-69
2022/06/23 02:09:43;;;;;;;7.25;6.55;;;15.00;99.90;;;;;;5083718;28;20226;-70
2022/06/23 02:12:21;;;;;;;10.77;6.65;;;15.00;99.90;;;;;;5089239;28;20194;-72
2022/06/23 02:14:57;;;;;;;7.68;6.88;;;15.00;99.90;;;;;;5094772;28;20267;-69
2022/06/23 02:17:39;;;;;;;7.10;6.18;;;15.00;99.90;;;;;;5092593;28;20284;-69
2022/06/23 02:20:21;;;;;;;8.75;7.55;;;14.90;99.90;;;;;;5093711;28;20234;-70
2022/06/23 02:22:59;;;;;;;7.13;6.43;;;15.00;99.90;;;;;;5087015;28;20207;-74
2022/06/23 02:25:31;;;;;;;7.85;6.78;;;15.00;99.90;;;;;;5087940;28;20463;-73
2022/06/23 02:28:11;;;;;;;7.10;6.43;;;14.90;99.90;;;;;;5091008;28;20206;-77
2022/06/23 02:30:43;;;;;;;9.20;7.38;;;15.00;99.90;;;;;;5077736;28;20230;-71
2022/06/23 02:33:30;;;;;;;8.55;7.65;;;15.00;99.90;;;;;;5087081;28;20735;-72
2022/06/23 02:36:13;;;;;;;7.47;6.63;;;15.00;99.90;;;;;;5082823;28;20352;-70
2022/06/23 02:38:45;;;;;;;7.43;6.72;;;15.00;99.90;;;;;;5083422;28;20194;-70
2022/06/23 02:41:18;;;;;;;10.85;7.90;;;15.00;99.90;;;;;;5089362;28;20215;-74
2022/06/23 02:43:49;;;;;;;7.93;7.15;;;15.10;99.90;;;;;;5088728;28;20199;-72
2022/06/23 02:46:47;;;;;;;7.95;6.90;;;15.00;99.90;;;;;;5085762;28;20194;-73
2022/06/23 02:49:30;;;;;;;8.55;7.40;;;15.00;99.90;;;;;;5082254;28;20211;-73
2022/06/23 02:52:26;;;;;;;7.50;6.78;;;15.00;99.90;;;;;;5083870;28;20272;-70
2022/06/23 02:55:21;;;;;;;8.45;6.97;;;15.00;99.90;;;;;;5081465;28;20207;-74
2022/06/23 02:57:54;;;;;;;7.97;7.18;;;14.90;99.90;;;;;;5087794;28;20238;-73
2022/06/23 03:00:28;;;;;;;8.48;7.68;;;15.00;99.90;;;;;;5085326;28;20446;-75
2022/06/23 03:03:06;;;;;;;12.65;9.07;;;15.00;99.90;;;;;;5090945;28;20197;-74
2022/06/23 03:05:44;;;;;;;9.43;8.25;;;14.90;99.90;;;;;;5088823;28;20206;-75
2022/06/23 03:08:24;;;;;;;8.65;7.75;;;14.90;99.90;;;;;;5088190;28;20186;-74
2022/06/23 03:10:56;;;;;;;10.57;8.00;;;14.80;99.90;;;;;;5083452;28;20243;-72
2022/06/23 03:13:34;;;;;;;9.57;8.68;;;14.90;99.90;;;;;;5087979;28;20256;-70
2022/06/23 03:16:07;;;;;;;9.90;8.85;;;14.90;99.90;;;;;;5087676;28;20222;-71
2022/06/23 03:18:41;;;;;;;10.77;9.43;;;14.80;99.90;;;;;;5090455;28;20199;-72
2022/06/23 03:21:15;;;;;;;13.70;9.48;;;14.80;99.90;;;;;;5083282;28;20275;-71
2022/06/23 03:23:47;;;;;;;10.98;8.93;;;14.80;99.90;;;;;;5088291;28;20209;-73
2022/06/23 03:26:20;;;;;;;9.75;8.85;;;14.80;99.90;;;;;;5081382;28;20194;-72
2022/06/23 03:28:51;;;;;;;10.13;9.15;;;14.80;99.90;;;;;;5087713;28;20205;-72
2022/06/23 03:31:26;;;;;;;9.85;8.10;;;14.80;99.90;;;;;;5086852;28;20392;-74
2022/06/23 03:34:00;;;;;;;10.43;8.63;;;14.80;99.90;;;;;;5083092;28;20410;-73
2022/06/23 03:36:33;;;;;;;7.95;7.15;;;14.80;99.90;;;;;;5073766;28;20452;-73
2022/06/23 03:42:04;;;;;;;9.98;8.95;;;14.90;99.90;;;;;;5078211;28;20433;-72
2022/06/23 03:44:35;;;;;;;9.93;8.88;;;15.10;99.90;;;;;;5081448;28;20193;-72
2022/06/23 03:47:05;;;;;;;10.50;9.40;;;15.00;99.90;;;;;;5085383;28;20190;-73
2022/06/23 03:49:44;;;;;;;11.57;10.38;;;15.00;99.90;;;;;;5077768;28;20537;-70
2022/06/23 03:52:21;;;;;;;10.05;8.95;;;15.10;99.90;;;;;;5082684;28;20262;-72
2022/06/23 03:54:53;;;;;;;14.23;11.05;;;15.10;99.90;;;;;;5081735;28;20194;-74
2022/06/23 03:57:25;;;;;;;12.10;10.95;;;15.20;99.90;;;;;;5083845;28;20538;-74
2022/06/23 04:00:05;;;;;;;11.38;10.18;;;15.20;99.90;;;;;;5076248;28;20486;-70
2022/06/23 04:02:39;;;;;;;9.90;8.88;;;15.30;99.90;;;;;;5089211;28;20190;-70
2022/06/23 04:05:17;;;;;;;11.77;10.00;;;15.50;99.90;;;;;;5086424;28;20194;-71
2022/06/23 04:07:50;;;;;;;8.75;7.95;;;16.00;99.90;;;;;;5085633;28;20463;-75
2022/06/23 04:10:24;;;;;;;9.83;8.47;;;16.90;99.90;;;;;;5082149;28;20213;-71
2022/06/23 04:12:57;;;;;;;7.60;6.90;;;17.80;99.90;;;;;;5080798;28;20435;-74
2022/06/23 04:15:30;;;;;;;8.87;7.30;;;18.70;99.90;;;;;;5082741;28;20460;-75
2022/06/23 04:18:01;;;;;;;7.60;6.80;;;19.70;99.90;;;;;;5083364;28;20440;-73
2022/06/23 04:20:37;;;;;;;8.67;7.00;;;20.60;99.90;;;;;;5078557;28;20473;-73
2022/06/23 04:23:07;;;;;;;6.73;5.93;;;21.30;99.90;;;;;;5082754;28;20491;-71
2022/06/23 04:25:46;;;;;;;7.87;7.13;;;21.90;99.90;;;;;;5076004;28;20459;-71
2022/06/23 04:28:22;;;;;;;6.07;5.57;;;22.40;99.90;;;;;;5080808;28;20452;-72
2022/06/23 04:30:50;;;;;;;7.13;6.43;;;23.00;99.90;;;;;;5085515;28;20491;-71
2022/06/23 04:33:21;;;;;;;7.17;6.57;;;23.40;99.90;;;;;;5088555;28;20512;-74
2022/06/23 04:35:54;;;;;;;7.00;6.40;;;23.70;99.90;;;;;;5081570;28;20468;-71
2022/06/23 04:38:42;;;;;;;7.10;6.50;;;24.20;99.60;;;;;;5090174;28;20421;-74
2022/06/23 04:41:15;;;;;;;7.97;7.33;;;24.70;98.30;;;;;;5084958;28;20469;-73
2022/06/23 04:43:47;;;;;;;6.80;5.53;;;25.20;96.10;;;;;;5088835;28;20432;-74
2022/06/23 04:46:18;;;;;;;5.97;5.33;;;25.60;94.90;;;;;;5086483;28;20433;-70
2022/06/23 04:48:51;;;;;;;7.07;6.37;;;26.10;94.00;;;;;;5082908;28;20660;-74
2022/06/23 04:51:28;;;;;;;8.43;6.40;;;26.60;92.60;;;;;;5085362;28;20495;-73
2022/06/23 04:54:01;;;;;;;6.70;6.07;;;27.10;91.30;;;;;;5085697;28;20432;-71
2022/06/23 04:56:36;;;;;;;6.17;5.60;;;27.30;90.40;;;;;;5085725;28;20465;-71
2022/06/23 04:59:14;;;;;;;7.30;5.37;;;27.50;89.90;;;;;;5085849;28;20536;-71
2022/06/23 05:01:45;;;;;;;5.90;5.30;;;27.90;88.50;;;;;;5085862;28;20669;-73
2022/06/23 05:04:18;;;;;;;5.93;5.33;;;28.30;86.80;;;;;;5079244;28;20441;-70
2022/06/23 05:06:51;;;;;;;8.83;5.70;;;28.30;85.90;;;;;;5085819;28;20429;-71
2022/06/23 05:09:25;;;;;;;8.87;6.43;;;28.60;85.20;;;;;;5082544;28;20485;-72
2022/06/23 05:11:54;;;;;;;7.70;6.03;;;28.80;83.80;;;;;;5080794;28;20457;-70
2022/06/23 05:14:28;;;;;;;6.40;5.50;;;28.40;83.90;;;;;;5079599;28;20450;-70
2022/06/23 05:17:02;;;;;;;6.00;5.50;;;28.80;83.90;;;;;;5076998;28;20429;-70
2022/06/23 05:19:32;;;;;;;6.13;5.53;;;28.30;84.00;;;;;;5079133;28;20445;-69
2022/06/23 05:22:08;;;;;;;5.80;5.20;;;28.30;83.60;;;;;;5080151;28;20450;-71
2022/06/23 05:24:39;;;;;;;9.10;6.40;;;28.50;83.60;;;;;;5073475;28;20441;-69
2022/06/23 05:27:15;;;;;;;6.83;5.77;;;28.80;82.50;;;;;;5074019;28;20438;-70
2022/06/23 05:29:49;;;;;;;6.40;5.80;;;29.30;80.90;;;;;;5080253;28;20455;-71
2022/06/23 05:32:21;;;;;;;8.37;6.60;;;29.60;80.40;;;;;;5085527;28;20476;-72
2022/06/23 05:34:53;;;;;;;5.93;5.43;;;29.50;79.80;;;;;;5086391;28;20629;-71
2022/06/23 05:37:25;;;;;;;8.73;5.60;;;29.50;79.60;;;;;;5089062;28;20433;-71
2022/06/23 05:40:03;;;;;;;7.70;6.07;;;29.50;79.00;;;;;;5091373;28;20480;-72
2022/06/23 05:42:32;;;;;;;8.20;5.90;;;29.70;79.20;;;;;;5097850;28;20449;-71
2022/06/23 05:45:03;;;;;;;14.50;7.40;;;29.90;78.30;;;;;;5092151;28;20499;-68
2022/06/23 05:47:33;;;;;;;12.73;6.73;;;30.10;77.60;;;;;;5085674;28;20978;-71
2022/06/23 05:50:05;;;;;;;11.47;6.90;;;29.90;77.70;;;;;;5082069;28;20460;-71
2022/06/23 05:52:45;;;;;;;8.33;6.20;;;30.20;77.40;;;;;;5080824;28;20488;-72
2022/06/23 05:55:18;;;;;;;9.43;6.43;;;30.70;76.50;;;;;;5083744;28;20448;-72
2022/06/23 05:57:51;;;;;;;7.90;6.17;;;31.20;74.60;;;;;;5081724;28;20483;-71
2022/06/23 06:00:25;;;;;;;6.03;5.40;;;31.60;74.00;;;;;;5085982;28;20457;-70
2022/06/23 06:02:58;;;;;;;7.33;6.07;;;32.10;72.70;;;;;;5078194;28;20487;-71
2022/06/23 06:05:29;;;;;;;8.27;5.83;;;32.20;71.70;;;;;;5086024;28;20448;-73
2022/06/23 06:08:00;;;;;;;7.10;5.70;;;31.80;72.00;;;;;;5080446;28;20436;-72
2022/06/23 06:10:30;;;;;;;8.70;6.90;;;31.70;72.60;;;;;;5082996;28;20441;-72
2022/06/23 06:12:58;;;;;;;9.50;6.20;;;31.90;71.90;;;;;;5074207;28;20729;-70
2022/06/23 06:15:28;;;;;;;7.63;5.17;;;31.80;72.00;;;;;;5075492;28;20437;-72
2022/06/23 06:18:03;;;;;;;6.10;5.60;;;32.00;71.90;;;;;;5081169;28;20465;-74
2022/06/23 06:20:30;;;;;;;7.83;5.77;;;32.30;71.00;;;;;;5076674;28;20451;-72
2022/06/23 06:23:05;;;;;;;6.60;5.43;;;31.90;70.90;;;;;;5092981;28;20445;-72
2022/06/23 06:25:34;;;;;;;7.00;5.10;;;32.00;71.60;;;;;;5077346;28;20417;-71
2022/06/23 06:28:13;;;;;;;6.70;4.70;;;32.20;71.60;;;;;;5083381;28;20449;-71
2022/06/23 06:30:43;;;;;;;6.07;5.17;;;32.60;70.30;;;;;;5075794;28;20445;-71
2022/06/23 06:33:27;;;;;;;7.70;4.77;;;32.70;69.40;;;;;;5086102;28;20460;-71
2022/06/23 06:35:56;;;;;;;7.77;6.20;;;33.10;69.10;;;;;;5087729;28;20433;-71
2022/06/23 06:38:26;;;;;;;7.20;5.50;;;33.20;68.30;;;;;;5087681;28;20661;-70
2022/06/23 06:40:56;;;;;;;8.07;5.00;;;33.20;67.80;;;;;;5085492;28;20520;-72
2022/06/23 06:43:28;;;;;;;6.10;5.50;;;33.30;66.70;;;;;;5088693;28;20498;-69
2022/06/23 06:45:58;;;;;;;8.17;5.97;;;33.10;67.00;;;;;;5087831;28;20433;-72
2022/06/23 06:48:30;;;;;;;5.63;4.20;;;33.00;67.20;;;;;;5083090;28;20426;-72
2022/06/23 06:51:02;;;;;;;8.30;4.90;;;33.10;67.30;;;;;;5085029;28;20480;-69
2022/06/23 06:53:34;;;;;;;6.37;4.53;;;33.50;66.50;;;;;;5083032;28;20471;-72
2022/06/23 06:56:08;;;;;;;4.50;4.10;;;33.80;65.60;;;;;;5086795;28;20453;-69
2022/06/23 06:58:42;;;;;;;8.20;6.60;;;33.90;65.30;;;;;;5088191;28;20456;-70
2022/06/23 07:01:22;;;;;;;7.00;4.43;;;33.80;64.50;;;;;;5083322;28;20457;-72
2022/06/23 07:03:51;;;;;;;6.30;5.23;;;34.40;64.30;;;;;;5088525;28;20433;-70
2022/06/23 07:06:26;;;;;;;5.90;4.70;;;34.40;63.10;;;;;;5088007;28;20429;-71
2022/06/23 07:09:03;;;;;;;4.73;4.03;;;35.00;62.20;;;;;;5085124;28;20724;-72
2022/06/23 07:11:34;;;;;;;6.87;4.93;;;34.50;63.30;;;;;;5079196;28;20504;-72
2022/06/23 07:14:06;;;;;;;9.37;4.97;;;34.20;62.40;;;;;;5088249;28;20438;-71
2022/06/23 07:16:41;;;;;;;6.40;3.90;;;33.80;63.40;;;;;;5088113;28;20441;-72
2022/06/23 07:19:14;;;;;;;6.53;4.20;;;34.20;63.20;;;;;;5085268;28;20437;-71
2022/06/23 07:21:47;;;;;;;4.70;4.30;;;34.30;62.20;;;;;;5093820;28;20503;-71
2022/06/23 07:24:20;;;;;;;5.00;4.43;;;35.20;60.40;;;;;;5087771;28;20510;-70
2022/06/23 07:26:52;;;;;;;5.83;5.00;;;35.40;59.20;;;;;;5082302;28;20448;-70
2022/06/23 07:29:31;;;;;;;8.17;4.40;;;35.30;59.40;;;;;;5083420;28;20457;-72
2022/06/23 07:32:07;;;;;;;4.03;3.60;;;35.70;59.00;;;;;;5084787;28;20442;-70
2022/06/23 07:34:38;;;;;;;6.43;4.10;;;35.70;58.80;;;;;;5079908;28;20591;-73
2022/06/23 07:37:13;;;;;;;5.93;4.17;;;35.80;58.00;;;;;;5075252;28;20422;-70
2022/06/23 07:39:42;;;;;;;5.33;4.40;;;36.00;57.10;;;;;;5087241;28;20518;-71
2022/06/23 07:42:15;;;;;;;6.67;5.27;;;36.40;56.40;;;;;;5086746;28;20644;-72
2022/06/23 07:44:47;;;;;;;7.43;4.20;;;36.10;56.70;;;;;;5087166;28;20439;-73
2022/06/23 07:47:16;;;;;;;6.40;4.10;;;36.40;56.30;;;;;;5073146;28;20504;-71
2022/06/23 07:49:44;;;;;;;5.90;4.67;;;37.20;54.70;;;;;;5078524;28;20449;-69
2022/06/23 07:52:14;;;;;;;4.30;3.90;;;37.40;53.50;;;;;;5086608;28;20492;-71
2022/06/23 07:54:43;;;;;;;7.93;4.80;;;37.40;52.70;;;;;;5085692;28;20441;-70
2022/06/23 07:57:13;;;;;;;5.60;3.90;;;37.20;53.00;;;;;;5083407;28;20553;-71
2022/06/23 07:59:45;;;;;;;4.50;3.93;;;36.60;52.30;;;;;;5084743;28;20441;-71
2022/06/23 08:02:20;;;;;;;4.67;4.27;;;37.00;51.90;;;;;;5080065;28;20474;-70
2022/06/23 08:04:55;;;;;;;4.70;2.90;;;36.70;52.00;;;;;;5082826;28;20710;-71
2022/06/23 08:07:22;;;;;;;4.60;3.60;;;36.90;51.80;;;;;;5082447;28;20425;-71
2022/06/23 08:09:54;;;;;;;8.17;3.73;;;36.60;51.60;;;;;;5080284;28;20680;-71
2022/06/23 08:18:03;;;;;;;4.10;3.00;;;36.90;51.60;;;;;;5080111;28;20448;-72
2022/06/23 08:20:48;;;;;;;7.60;3.30;;;37.50;48.10;;;;;;5084867;28;20465;-73
2022/06/23 08:23:17;;;;;;;5.60;3.80;;;37.40;47.80;;;;;;5086648;28;20482;-73
2022/06/23 08:25:47;;;;;;;5.47;3.60;;;36.80;47.90;;;;;;5086407;28;20448;-72
2022/06/23 08:28:15;;;;;;;5.27;3.40;;;36.70;48.10;;;;;;5079679;28;20430;-70
2022/06/23 08:30:44;;;;;;;4.83;3.50;;;37.00;48.40;;;;;;5081086;28;20515;-72
2022/06/23 08:33:11;;;;;;;3.63;3.33;;;37.30;48.60;;;;;;5078787;28;20481;-74
2022/06/23 08:35:42;;;;;;;3.53;3.23;;;37.20;47.90;;;;;;5081619;28;20512;-71
2022/06/23 08:38:13;;;;;;;3.20;2.90;;;37.40;47.30;;;;;;5082015;28;20524;-71
2022/06/23 08:41:04;;;;;;;4.17;3.33;;;37.10;47.90;;;;;;5078897;28;20633;-73
2022/06/23 08:43:42;;;;;;;4.50;3.70;;;37.10;47.80;;;;;;5077720;28;20484;-71
2022/06/23 08:46:20;;;;;;;4.73;3.33;;;37.10;47.80;;;;;;5086294;28;20435;-72
2022/06/23 08:48:56;;;;;;;3.20;2.90;;;36.70;47.80;;;;;;5092372;28;20672;-71
2022/06/23 08:51:35;;;;;;;5.37;3.00;;;37.10;48.20;;;;;;5082754;28;20432;-70
2022/06/23 08:54:11;;;;;;;7.23;3.63;;;37.20;48.20;;;;;;5081484;28;20425;-69
2022/06/23 08:56:46;;;;;;;3.57;3.27;;;37.30;47.70;;;;;;5075846;28;20452;-71
2022/06/23 08:59:20;;;;;;;3.13;2.83;;;37.10;48.30;;;;;;5086535;28;20456;-73
2022/06/23 09:01:57;;;;;;;3.43;3.13;;;37.30;47.50;;;;;;5086247;28;20479;-69
2022/06/23 09:04:34;;;;;;;5.27;3.37;;;36.90;47.90;;;;;;5083074;28;20519;-70
2022/06/23 09:07:11;;;;;;;4.03;3.50;;;36.90;48.30;;;;;;5086830;28;20575;-71
2022/06/23 09:09:49;;;;;;;5.13;3.00;;;37.20;47.00;;;;;;5081705;28;20704;-70
2022/06/23 09:12:27;;;;;;;4.50;3.30;;;37.30;47.30;;;;;;5083989;28;20455;-72
2022/06/23 09:15:34;;;;;;;4.73;3.50;;;37.80;46.20;;;;;;5081894;28;20464;-73
2022/06/23 09:18:37;;;;;;;5.13;2.97;;;37.80;45.90;;;;;;5082303;28;20448;-70
2022/06/23 09:21:25;;;;;;;5.17;3.27;;;37.70;46.00;;;;;;5078213;28;20457;-73
2022/06/23 09:24:17;;;;;;;5.93;3.13;;;37.70;46.30;;;;;;5078068;28;20519;-75
2022/06/23 09:26:51;;;;;;;4.13;3.57;;;38.00;45.30;;;;;;5072277;28;20433;-73
2022/06/23 09:29:25;;;;;;;3.37;3.07;;;37.40;45.50;;;;;;5078576;28;20457;-69
2022/06/23 09:32:00;;;;;;;5.80;3.70;;;36.50;46.80;;;;;;5084302;28;20502;-70
2022/06/23 09:34:45;;;;;;;6.50;3.67;;;36.50;47.70;;;;;;5076906;28;20433;-73
2022/06/23 09:37:40;;;;;;;4.80;3.80;;;36.00;47.30;;;;;;5081210;28;20426;-72
2022/06/23 09:40:32;;;;;;;3.53;3.00;;;35.50;48.90;;;;;;5080031;28;20541;-72
2022/06/23 09:43:24;;;;;;;5.47;3.40;;;36.00;47.90;;;;;;5081349;28;20477;-72
2022/06/23 09:46:20;;;;;;;6.37;3.97;;;36.60;47.10;;;;;;5077139;28;20430;-71
2022/06/23 09:49:02;;;;;;;3.83;2.97;;;36.40;46.60;;;;;;5078675;28;20436;-72
2022/06/23 09:52:02;;;;;;;5.03;2.80;;;35.80;46.60;;;;;;5074065;28;20491;-70
2022/06/23 09:54:53;;;;;;;4.10;3.60;;;35.90;47.00;;;;;;5073833;28;20442;-71
2022/06/23 09:57:42;;;;;;;4.00;3.60;;;35.70;46.80;;;;;;5083342;28;20661;-68
2022/06/23 10:00:12;;;;;;;9.03;2.70;;;35.70;46.60;;;;;;5072722;28;20564;-70
2022/06/23 10:03:07;;;;;;;5.07;2.87;;;36.20;46.30;;;;;;5072757;28;20491;-69
2022/06/23 10:05:57;;;;;;;3.73;3.20;;;36.10;46.70;;;;;;5077451;28;20447;-71
2022/06/23 10:08:32;;;;;;;4.17;3.20;;;35.60;47.10;;;;;;5083850;28;20434;-73
2022/06/23 10:11:28;;;;;;;4.40;2.73;;;35.30;46.10;;;;;;5082551;28;20682;-76
2022/06/23 10:14:21;;;;;;;4.30;3.07;;;35.50;46.40;;;;;;5084908;28;20500;-71
2022/06/23 10:17:09;;;;;;;3.17;2.87;;;35.70;45.50;;;;;;5083139;28;20456;-72
2022/06/23 10:20:10;;;;;;;3.50;2.73;;;35.40;44.30;;;;;;5086856;28;20484;-74
2022/06/23 10:22:52;;;;;;;4.33;2.93;;;36.10;44.90;;;;;;5082152;28;20464;-73
2022/06/23 10:25:39;;;;;;;4.37;3.23;;;36.20;44.90;;;;;;5087263;28;20455;-71
2022/06/23 10:28:23;;;;;;;4.77;3.20;;;35.40;44.60;;;;;;5089255;28;20504;-71
2022/06/23 10:30:58;;;;;;;8.40;3.30;;;35.10;45.10;;;;;;5086869;28;20476;-70
2022/06/23 10:33:48;;;;;;;4.40;3.03;;;35.40;45.10;;;;;;5085259;28;20427;-72
2022/06/23 10:36:45;;;;;;;5.87;3.13;;;35.30;44.90;;;;;;5084047;28;20437;-75
2022/06/23 10:39:26;;;;;;;4.53;2.70;;;35.40;44.60;;;;;;5085140;28;20448;-72
2022/06/23 10:42:21;;;;;;;5.67;2.73;;;35.10;44.90;;;;;;5086765;28;20522;-70
2022/06/23 10:45:01;;;;;;;4.47;3.60;;;34.10;46.80;;;;;;5082494;28;20665;-71
2022/06/23 10:47:47;;;;;;;7.30;2.83;;;33.40;47.70;;;;;;5087789;28;20425;-72
2022/06/23 10:50:37;;;;;;;7.97;2.90;;;32.80;48.90;;;;;;5086279;28;20440;-69
2022/06/23 10:53:24;;;;;;;3.60;2.10;;;32.40;49.90;;;;;;5086163;28;20443;-73
2022/06/23 10:56:01;;;;;;;3.40;3.10;;;32.00;49.30;;;;;;5041421;28;1143476;-70
2022/06/23 10:58:57;;;;;;;8.33;3.17;;;31.80;49.30;;;;;;5087259;28;20240;-73
2022/06/23 11:01:40;;;;;;;5.97;4.00;;;31.50;49.90;;;;;;5086734;28;20449;-71
2022/06/23 11:04:32;;;;;;;4.17;2.50;;;31.40;49.80;;;;;;5085950;28;20586;-68
2022/06/23 11:07:23;;;;;;;3.80;3.10;;;31.30;50.80;;;;;;5066078;28;20521;-73
2022/06/23 11:10:05;;;;;;;3.87;3.17;;;31.10;51.40;;;;;;5084724;28;20487;-70
2022/06/23 11:12:56;;;;;;;2.63;2.43;;;30.80;51.30;;;;;;5086471;28;20459;-69
2022/06/23 11:15:30;;;;;;;4.23;3.20;;;31.00;50.80;;;;;;5089894;28;20452;-73
2022/06/23 11:18:25;;;;;;;3.77;2.80;;;30.90;51.00;;;;;;5090066;28;20441;-70
2022/06/23 11:21:08;;;;;;;3.30;2.80;;;30.80;51.20;;;;;;5088268;28;20441;-71
2022/06/23 11:23:46;;;;;;;5.03;3.23;;;30.80;51.60;;;;;;5085861;28;20465;-70
2022/06/23 11:26:25;;;;;;;8.63;3.30;;;30.70;50.80;;;;;;5088875;28;20433;-69
2022/06/23 11:29:10;;;;;;;7.83;2.63;;;30.70;50.80;;;;;;5079409;28;20479;-71
2022/06/23 11:31:49;;;;;;;4.30;2.83;;;30.80;51.20;;;;;;5082628;28;20638;-69
2022/06/23 11:34:35;;;;;;;4.87;3.03;;;30.80;50.30;;;;;;5084069;28;20691;-69
2022/06/23 11:37:22;;;;;;;8.30;2.90;;;30.80;50.50;;;;;;5086231;28;20474;-70
2022/06/23 11:40:32;;;;;;;3.70;3.07;;;31.00;50.10;;;;;;5087062;28;20498;-71
2022/06/23 11:43:14;;;;;;;3.57;2.60;;;31.10;49.90;;;;;;5023404;28;20713;-72
2022/06/23 11:45:51;;;;;;;4.30;2.40;;;31.10;50.00;;;;;;5018428;28;20470;-69
2022/06/23 11:48:40;;;;;;;2.50;2.30;;;31.20;48.80;;;;;;5065455;28;20486;-75
2022/06/23 11:51:20;;;;;;;3.70;2.90;;;31.20;48.50;;;;;;5089539;28;20445;-69
2022/06/23 11:54:02;;;;;;;10.10;3.10;;;31.00;48.90;;;;;;5081864;28;20666;-70
2022/06/23 11:56:43;;;;;;;3.00;2.50;;;31.00;49.40;;;;;;5099858;28;20441;-69
2022/06/23 11:59:25;;;;;;;3.80;2.80;;;30.90;48.50;;;;;;5078327;28;20434;-70
2022/06/23 12:01:54;;;;;;;2.83;2.27;;;30.90;49.10;;;;;;5076600;28;20425;-70
2022/06/23 12:04:46;;;;;;;4.70;2.80;;;30.80;47.80;;;;;;5086015;28;20485;-74
2022/06/23 12:07:38;;;;;;;5.00;2.50;;;30.70;48.60;;;;;;5087528;28;20727;-71
2022/06/23 12:10:15;;;;;;;2.30;2.10;;;30.70;48.30;;;;;;5079065;28;20442;-71
2022/06/23 12:12:46;;;;;;;6.30;3.40;;;30.70;48.40;;;;;;5085694;28;20444;-71
2022/06/23 12:15:18;;;;;;;2.57;2.10;;;30.70;47.80;;;;;;5082380;28;20442;-73
2022/06/23 12:17:50;;;;;;;6.10;2.90;;;30.90;46.80;;;;;;5080095;28;20425;-73
2022/06/23 12:20:25;;;;;;;4.47;2.07;;;31.00;46.60;;;;;;5084969;28;20456;-72
2022/06/23 12:23:00;;;;;;;5.07;2.20;;;30.80;46.10;;;;;;5079373;28;20669;-72
2022/06/23 12:25:36;;;;;;;3.53;2.17;;;30.70;46.70;;;;;;5078833;28;20617;-72
2022/06/23 12:28:12;;;;;;;5.30;1.90;;;30.70;46.40;;;;;;5084271;28;20489;-71
2022/06/23 12:30:47;;;;;;;3.40;2.17;;;30.80;46.50;;;;;;5085721;28;20453;-71
2022/06/23 12:33:20;;;;;;;4.30;2.30;;;31.00;46.30;;;;;;5084320;28;20449;-72
2022/06/23 12:35:52;;;;;;;3.23;1.90;;;31.00;47.10;;;;;;5085569;28;20468;-73
2022/06/23 12:38:24;;;;;;;4.07;2.13;;;30.80;47.50;;;;;;5086266;28;20467;-71
2022/06/23 12:40:55;;;;;;;3.73;2.60;;;30.90;47.70;;;;;;5083203;28;20617;-73
2022/06/23 12:43:32;;;;;;;6.13;2.47;;;31.00;47.00;;;;;;5085645;28;20476;-71
2022/06/23 12:46:06;;;;;;;3.47;2.27;;;31.00;46.40;;;;;;5083319;28;20545;-73
2022/06/23 12:48:58;;;;;;;3.13;2.50;;;31.00;46.30;;;;;;5084160;28;20430;-70
2022/06/23 12:51:45;;;;;;;3.20;1.80;;;31.00;46.40;;;;;;5084624;28;20678;-68
2022/06/23 12:54:34;;;;;;;2.60;2.20;;;31.00;46.30;;;;;;5084219;28;20486;-70
2022/06/23 12:57:20;;;;;;;2.40;2.20;;;31.00;46.30;;;;;;5082784;28;20464;-73
2022/06/23 12:59:54;;;;;;;4.63;2.40;;;30.90;46.70;;;;;;5084903;28;21100;-68
2022/06/23 13:02:31;;;;;;;4.20;2.60;;;30.70;46.40;;;;;;5084951;28;20471;-72
2022/06/23 13:05:05;;;;;;;4.53;2.17;;;30.80;46.20;;;;;;5085999;28;20523;-68
2022/06/23 13:07:41;;;;;;;4.73;2.00;;;30.80;45.70;;;;;;5086858;28;20421;-72
2022/06/23 13:10:18;;;;;;;4.20;2.07;;;31.00;45.60;;;;;;5082908;28;20460;-73
2022/06/23 13:12:53;;;;;;;2.87;2.03;;;31.00;45.20;;;;;;5084227;28;20453;-70
2022/06/23 13:15:29;;;;;;;2.53;1.80;;;31.00;44.80;;;;;;5083098;28;20445;-71
2022/06/23 13:18:02;;;;;;;2.50;2.30;;;31.00;44.90;;;;;;5085323;28;20437;-70
2022/06/23 13:20:35;;;;;;;4.50;2.17;;;30.90;45.30;;;;;;5082523;28;20763;-73
2022/06/23 13:23:07;;;;;;;2.90;1.90;;;30.90;45.40;;;;;;5084289;28;20546;-72
2022/06/23 13:25:37;;;;;;;2.53;2.10;;;31.00;45.20;;;;;;5093645;28;20557;-73
2022/06/23 13:28:06;;;;;;;3.30;1.97;;;31.00;43.20;;;;;;5084059;28;20438;-73
2022/06/23 13:30:42;;;;;;;3.90;1.97;;;31.10;42.50;;;;;;5083630;28;20453;-72
2022/06/23 13:33:16;;;;;;;2.43;2.10;;;31.20;42.80;;;;;;5085692;28;20457;-75
2022/06/23 13:35:46;;;;;;;2.73;2.10;;;31.30;43.10;;;;;;5067135;28;20521;-71
2022/06/23 13:38:21;;;;;;;4.90;2.27;;;31.30;43.40;;;;;;5077139;28;20504;-71
2022/06/23 13:40:56;;;;;;;3.30;1.90;;;31.30;43.20;;;;;;5079812;28;20445;-70
2022/06/23 13:43:37;;;;;;;3.87;2.60;;;31.20;43.70;;;;;;5081408;28;20441;-72
2022/06/23 13:46:13;;;;;;;3.17;2.13;;;31.30;44.30;;;;;;5080504;28;20443;-74
2022/06/23 13:48:47;;;;;;;3.40;2.00;;;31.40;44.10;;;;;;5076005;28;20502;-72